sensor_id;sensor_type;location;lat;lon;timestamp;P1;durP1;ratioP1;P2;durP2;ratioP2
8435;SDS011;4255;48.730;9.156;2024-03-08T00:01:59;50.15;;;25.70;;
8435;SDS011;4255;48.730;9.156;2024-03-08T00:04:25;41.27;;;23.03;;
8435;SDS011;4255;48.730;9.156;2024-03-08T00:06:51;37.77;;;23.00;;
8435;SDS011;4255;48.730;9.156;2024-03-08T00:09:17;40.47;;;24.00;;
8435;SDS011;4255;48.730;9.156;2024-03-08T00:11:43;42.00;;;22.13;;
8435;SDS011;4255;48.730;9.156;2024-03-08T00:14:08;45.93;;;25.53;;
8435;SDS011;4255;48.730;9.156;2024-03-08T00:16:34;39.80;;;22.03;;
8435;SDS011;4255;48.730;9.156;2024-03-08T00:19:00;37.85;;;22.10;;
8435;SDS011;4255;48.730;9.156;2024-03-08T00:21:26;35.15;;;21.83;;
8435;SDS011;4255;48.730;9.156;2024-03-08T00:23:52;36.93;;;23.23;;
8435;SDS011;4255;48.730;9.156;2024-03-08T00:26:21;35.40;;;21.80;;
8435;SDS011;4255;48.730;9.156;2024-03-08T00:28:49;39.42;;;22.58;;
8435;SDS011;4255;48.730;9.156;2024-03-08T00:31:15;40.43;;;21.90;;
8435;SDS011;4255;48.730;9.156;2024-03-08T00:33:42;37.22;;;21.70;;
8435;SDS011;4255;48.730;9.156;2024-03-08T00:36:07;34.47;;;20.60;;
8435;SDS011;4255;48.730;9.156;2024-03-08T00:38:33;35.10;;;20.67;;
8435;SDS011;4255;48.730;9.156;2024-03-08T00:40:59;36.43;;;21.50;;
8435;SDS011;4255;48.730;9.156;2024-03-08T00:43:25;48.23;;;21.30;;
8435;SDS011;4255;48.730;9.156;2024-03-08T00:45:51;35.10;;;20.87;;
8435;SDS011;4255;48.730;9.156;2024-03-08T00:48:16;40.73;;;22.50;;
8435;SDS011;4255;48.730;9.156;2024-03-08T00:50:42;39.27;;;22.30;;
8435;SDS011;4255;48.730;9.156;2024-03-08T00:53:10;36.20;;;20.90;;
8435;SDS011;4255;48.730;9.156;2024-03-08T00:55:37;44.47;;;21.67;;
8435;SDS011;4255;48.730;9.156;2024-03-08T00:58:03;35.40;;;20.90;;
8435;SDS011;4255;48.730;9.156;2024-03-08T01:00:29;37.97;;;21.05;;
8435;SDS011;4255;48.730;9.156;2024-03-08T01:02:55;36.80;;;23.07;;
8435;SDS011;4255;48.730;9.156;2024-03-08T01:05:22;34.88;;;20.05;;
8435;SDS011;4255;48.730;9.156;2024-03-08T01:07:50;35.70;;;20.35;;
8435;SDS011;4255;48.730;9.156;2024-03-08T01:10:16;37.90;;;21.73;;
8435;SDS011;4255;48.730;9.156;2024-03-08T01:12:42;41.23;;;22.53;;
8435;SDS011;4255;48.730;9.156;2024-03-08T01:15:08;34.13;;;19.13;;
8435;SDS011;4255;48.730;9.156;2024-03-08T01:17:35;44.47;;;21.17;;
8435;SDS011;4255;48.730;9.156;2024-03-08T01:20:01;33.20;;;20.55;;
8435;SDS011;4255;48.730;9.156;2024-03-08T01:22:27;38.10;;;21.88;;
8435;SDS011;4255;48.730;9.156;2024-03-08T01:24:54;39.65;;;23.25;;
8435;SDS011;4255;48.730;9.156;2024-03-08T01:27:20;39.08;;;23.42;;
8435;SDS011;4255;48.730;9.156;2024-03-08T01:29:46;37.90;;;21.80;;
8435;SDS011;4255;48.730;9.156;2024-03-08T01:32:12;39.20;;;23.40;;
8435;SDS011;4255;48.730;9.156;2024-03-08T01:34:39;40.50;;;22.88;;
8435;SDS011;4255;48.730;9.156;2024-03-08T01:37:05;39.27;;;23.70;;
8435;SDS011;4255;48.730;9.156;2024-03-08T01:39:31;34.15;;;21.23;;
8435;SDS011;4255;48.730;9.156;2024-03-08T01:41:57;41.10;;;23.50;;
8435;SDS011;4255;48.730;9.156;2024-03-08T01:44:23;44.40;;;21.10;;
8435;SDS011;4255;48.730;9.156;2024-03-08T01:46:49;40.13;;;22.80;;
8435;SDS011;4255;48.730;9.156;2024-03-08T01:49:17;36.67;;;21.42;;
8435;SDS011;4255;48.730;9.156;2024-03-08T01:51:45;35.65;;;21.30;;
8435;SDS011;4255;48.730;9.156;2024-03-08T01:54:11;40.10;;;21.40;;
8435;SDS011;4255;48.730;9.156;2024-03-08T01:56:38;37.25;;;21.38;;
8435;SDS011;4255;48.730;9.156;2024-03-08T01:59:05;38.28;;;20.15;;
8435;SDS011;4255;48.730;9.156;2024-03-08T02:01:32;34.30;;;20.13;;
8435;SDS011;4255;48.730;9.156;2024-03-08T02:03:59;39.10;;;20.67;;
8435;SDS011;4255;48.730;9.156;2024-03-08T02:06:24;34.43;;;19.33;;
8435;SDS011;4255;48.730;9.156;2024-03-08T02:08:50;33.53;;;19.97;;
8435;SDS011;4255;48.730;9.156;2024-03-08T02:11:16;33.67;;;20.42;;
8435;SDS011;4255;48.730;9.156;2024-03-08T02:13:42;37.47;;;19.42;;
8435;SDS011;4255;48.730;9.156;2024-03-08T02:16:08;34.60;;;20.87;;
8435;SDS011;4255;48.730;9.156;2024-03-08T02:18:33;37.90;;;20.23;;
8435;SDS011;4255;48.730;9.156;2024-03-08T02:20:59;30.30;;;19.10;;
8435;SDS011;4255;48.730;9.156;2024-03-08T02:23:27;30.75;;;17.20;;
8435;SDS011;4255;48.730;9.156;2024-03-08T02:25:53;31.57;;;18.87;;
8435;SDS011;4255;48.730;9.156;2024-03-08T02:28:20;31.50;;;19.70;;
8435;SDS011;4255;48.730;9.156;2024-03-08T02:30:49;33.90;;;20.00;;
8435;SDS011;4255;48.730;9.156;2024-03-08T02:33:21;30.67;;;18.33;;
8435;SDS011;4255;48.730;9.156;2024-03-08T02:35:48;37.20;;;20.45;;
8435;SDS011;4255;48.730;9.156;2024-03-08T02:38:16;32.47;;;19.70;;
8435;SDS011;4255;48.730;9.156;2024-03-08T02:40:44;37.22;;;18.38;;
8435;SDS011;4255;48.730;9.156;2024-03-08T02:43:11;29.50;;;17.23;;
8435;SDS011;4255;48.730;9.156;2024-03-08T02:45:37;30.88;;;19.13;;
8435;SDS011;4255;48.730;9.156;2024-03-08T02:48:03;31.73;;;19.90;;
8435;SDS011;4255;48.730;9.156;2024-03-08T02:50:31;37.85;;;20.65;;
8435;SDS011;4255;48.730;9.156;2024-03-08T02:52:57;29.17;;;18.42;;
8435;SDS011;4255;48.730;9.156;2024-03-08T02:55:22;29.20;;;18.00;;
8435;SDS011;4255;48.730;9.156;2024-03-08T02:57:51;28.20;;;17.27;;
8435;SDS011;4255;48.730;9.156;2024-03-08T03:00:17;32.40;;;19.02;;
8435;SDS011;4255;48.730;9.156;2024-03-08T03:02:44;33.38;;;20.77;;
8435;SDS011;4255;48.730;9.156;2024-03-08T03:05:11;38.75;;;18.63;;
8435;SDS011;4255;48.730;9.156;2024-03-08T03:07:36;31.97;;;19.47;;
8435;SDS011;4255;48.730;9.156;2024-03-08T03:10:02;32.55;;;17.45;;
8435;SDS011;4255;48.730;9.156;2024-03-08T03:12:29;31.40;;;18.95;;
8435;SDS011;4255;48.730;9.156;2024-03-08T03:14:55;29.98;;;17.02;;
8435;SDS011;4255;48.730;9.156;2024-03-08T03:17:24;34.10;;;18.60;;
8435;SDS011;4255;48.730;9.156;2024-03-08T03:19:50;32.70;;;18.48;;
8435;SDS011;4255;48.730;9.156;2024-03-08T03:22:20;34.42;;;18.77;;
8435;SDS011;4255;48.730;9.156;2024-03-08T03:24:46;36.33;;;20.50;;
8435;SDS011;4255;48.730;9.156;2024-03-08T03:27:12;21.13;;;14.83;;
8435;SDS011;4255;48.730;9.156;2024-03-08T03:29:40;36.28;;;20.02;;
8435;SDS011;4255;48.730;9.156;2024-03-08T03:32:14;42.38;;;20.17;;
8435;SDS011;4255;48.730;9.156;2024-03-08T03:34:40;32.95;;;19.55;;
8435;SDS011;4255;48.730;9.156;2024-03-08T03:37:07;33.88;;;20.88;;
8435;SDS011;4255;48.730;9.156;2024-03-08T03:39:39;33.55;;;20.60;;
8435;SDS011;4255;48.730;9.156;2024-03-08T03:42:14;34.67;;;18.90;;
8435;SDS011;4255;48.730;9.156;2024-03-08T03:44:41;36.75;;;19.15;;
8435;SDS011;4255;48.730;9.156;2024-03-08T03:47:09;30.55;;;18.13;;
8435;SDS011;4255;48.730;9.156;2024-03-08T03:49:35;31.47;;;19.07;;
8435;SDS011;4255;48.730;9.156;2024-03-08T03:52:00;33.10;;;19.60;;
8435;SDS011;4255;48.730;9.156;2024-03-08T03:54:26;37.23;;;20.00;;
8435;SDS011;4255;48.730;9.156;2024-03-08T03:56:52;39.80;;;19.43;;
8435;SDS011;4255;48.730;9.156;2024-03-08T03:59:18;34.92;;;22.30;;
8435;SDS011;4255;48.730;9.156;2024-03-08T04:01:44;31.00;;;19.52;;
8435;SDS011;4255;48.730;9.156;2024-03-08T04:04:10;37.57;;;20.90;;
8435;SDS011;4255;48.730;9.156;2024-03-08T04:06:37;32.83;;;20.50;;
8435;SDS011;4255;48.730;9.156;2024-03-08T04:09:03;39.90;;;21.67;;
8435;SDS011;4255;48.730;9.156;2024-03-08T04:11:29;36.47;;;21.85;;
8435;SDS011;4255;48.730;9.156;2024-03-08T04:13:55;40.50;;;21.90;;
8435;SDS011;4255;48.730;9.156;2024-03-08T04:16:21;40.17;;;23.00;;
8435;SDS011;4255;48.730;9.156;2024-03-08T04:18:46;34.83;;;19.27;;
8435;SDS011;4255;48.730;9.156;2024-03-08T04:21:12;44.03;;;21.40;;
8435;SDS011;4255;48.730;9.156;2024-03-08T04:23:38;35.13;;;22.57;;
8435;SDS011;4255;48.730;9.156;2024-03-08T04:26:04;36.45;;;20.92;;
8435;SDS011;4255;48.730;9.156;2024-03-08T04:28:31;36.10;;;20.27;;
8435;SDS011;4255;48.730;9.156;2024-03-08T04:30:57;37.97;;;21.13;;
8435;SDS011;4255;48.730;9.156;2024-03-08T04:33:25;36.17;;;21.48;;
8435;SDS011;4255;48.730;9.156;2024-03-08T04:35:51;44.80;;;23.50;;
8435;SDS011;4255;48.730;9.156;2024-03-08T04:38:17;42.67;;;23.40;;
8435;SDS011;4255;48.730;9.156;2024-03-08T04:40:42;37.27;;;21.70;;
8435;SDS011;4255;48.730;9.156;2024-03-08T04:43:08;42.50;;;21.77;;
8435;SDS011;4255;48.730;9.156;2024-03-08T04:45:35;35.47;;;20.90;;
8435;SDS011;4255;48.730;9.156;2024-03-08T04:48:01;37.83;;;20.77;;
8435;SDS011;4255;48.730;9.156;2024-03-08T04:50:27;43.57;;;22.50;;
8435;SDS011;4255;48.730;9.156;2024-03-08T04:52:55;37.65;;;21.85;;
8435;SDS011;4255;48.730;9.156;2024-03-08T04:55:21;40.40;;;23.93;;
8435;SDS011;4255;48.730;9.156;2024-03-08T04:57:48;43.33;;;23.13;;
8435;SDS011;4255;48.730;9.156;2024-03-08T05:00:14;39.13;;;22.77;;
8435;SDS011;4255;48.730;9.156;2024-03-08T05:02:40;39.17;;;21.05;;
8435;SDS011;4255;48.730;9.156;2024-03-08T05:05:09;44.03;;;25.52;;
8435;SDS011;4255;48.730;9.156;2024-03-08T05:07:37;38.90;;;24.33;;
8435;SDS011;4255;48.730;9.156;2024-03-08T05:10:04;36.72;;;23.02;;
8435;SDS011;4255;48.730;9.156;2024-03-08T05:12:31;41.25;;;23.25;;
8435;SDS011;4255;48.730;9.156;2024-03-08T05:14:57;39.22;;;22.27;;
8435;SDS011;4255;48.730;9.156;2024-03-08T05:17:23;45.47;;;24.30;;
8435;SDS011;4255;48.730;9.156;2024-03-08T05:19:49;39.87;;;21.80;;
8435;SDS011;4255;48.730;9.156;2024-03-08T05:22:15;38.55;;;22.25;;
8435;SDS011;4255;48.730;9.156;2024-03-08T05:24:41;33.43;;;20.17;;
8435;SDS011;4255;48.730;9.156;2024-03-08T05:27:07;38.83;;;22.35;;
8435;SDS011;4255;48.730;9.156;2024-03-08T05:29:33;41.73;;;23.30;;
8435;SDS011;4255;48.730;9.156;2024-03-08T05:31:58;42.97;;;24.10;;
8435;SDS011;4255;48.730;9.156;2024-03-08T05:34:24;42.93;;;23.10;;
8435;SDS011;4255;48.730;9.156;2024-03-08T05:36:51;44.42;;;23.17;;
8435;SDS011;4255;48.730;9.156;2024-03-08T05:39:17;36.40;;;22.83;;
8435;SDS011;4255;48.730;9.156;2024-03-08T05:41:43;45.30;;;23.83;;
8435;SDS011;4255;48.730;9.156;2024-03-08T05:44:10;38.40;;;23.13;;
8435;SDS011;4255;48.730;9.156;2024-03-08T05:46:37;40.83;;;21.88;;
8435;SDS011;4255;48.730;9.156;2024-03-08T05:49:03;43.70;;;22.60;;
8435;SDS011;4255;48.730;9.156;2024-03-08T05:51:32;39.33;;;22.70;;
8435;SDS011;4255;48.730;9.156;2024-03-08T05:54:01;37.03;;;22.10;;
8435;SDS011;4255;48.730;9.156;2024-03-08T05:56:29;46.03;;;24.63;;
8435;SDS011;4255;48.730;9.156;2024-03-08T05:58:54;47.05;;;22.50;;
8435;SDS011;4255;48.730;9.156;2024-03-08T06:01:20;42.70;;;22.80;;
8435;SDS011;4255;48.730;9.156;2024-03-08T06:03:46;38.70;;;23.23;;
8435;SDS011;4255;48.730;9.156;2024-03-08T06:06:15;35.10;;;22.30;;
8435;SDS011;4255;48.730;9.156;2024-03-08T06:08:40;41.40;;;22.77;;
8435;SDS011;4255;48.730;9.156;2024-03-08T06:11:08;38.53;;;22.75;;
8435;SDS011;4255;48.730;9.156;2024-03-08T06:13:34;46.03;;;25.42;;
8435;SDS011;4255;48.730;9.156;2024-03-08T06:16:00;42.58;;;23.42;;
8435;SDS011;4255;48.730;9.156;2024-03-08T06:18:29;47.03;;;25.00;;
8435;SDS011;4255;48.730;9.156;2024-03-08T06:20:57;42.45;;;21.90;;
8435;SDS011;4255;48.730;9.156;2024-03-08T06:23:23;40.60;;;22.93;;
8435;SDS011;4255;48.730;9.156;2024-03-08T06:25:48;40.40;;;21.90;;
8435;SDS011;4255;48.730;9.156;2024-03-08T06:28:14;41.07;;;22.73;;
8435;SDS011;4255;48.730;9.156;2024-03-08T06:30:40;47.03;;;23.50;;
8435;SDS011;4255;48.730;9.156;2024-03-08T06:33:06;41.80;;;23.93;;
8435;SDS011;4255;48.730;9.156;2024-03-08T06:35:35;45.40;;;24.67;;
8435;SDS011;4255;48.730;9.156;2024-03-08T06:38:03;33.30;;;22.30;;
8435;SDS011;4255;48.730;9.156;2024-03-08T06:40:29;43.00;;;23.90;;
8435;SDS011;4255;48.730;9.156;2024-03-08T06:42:54;40.10;;;23.23;;
8435;SDS011;4255;48.730;9.156;2024-03-08T06:45:20;39.60;;;21.83;;
8435;SDS011;4255;48.730;9.156;2024-03-08T06:47:46;41.30;;;24.08;;
8435;SDS011;4255;48.730;9.156;2024-03-08T06:50:13;41.25;;;23.02;;
8435;SDS011;4255;48.730;9.156;2024-03-08T06:52:40;44.47;;;23.55;;
8435;SDS011;4255;48.730;9.156;2024-03-08T06:55:07;48.70;;;23.98;;
8435;SDS011;4255;48.730;9.156;2024-03-08T06:57:36;38.30;;;23.63;;
8435;SDS011;4255;48.730;9.156;2024-03-08T07:00:06;43.17;;;25.27;;
8435;SDS011;4255;48.730;9.156;2024-03-08T07:02:35;37.90;;;22.50;;
8435;SDS011;4255;48.730;9.156;2024-03-08T07:05:01;43.67;;;22.40;;
8435;SDS011;4255;48.730;9.156;2024-03-08T07:07:27;40.13;;;22.42;;
8435;SDS011;4255;48.730;9.156;2024-03-08T07:09:52;48.47;;;23.80;;
8435;SDS011;4255;48.730;9.156;2024-03-08T07:12:18;41.83;;;22.00;;
8435;SDS011;4255;48.730;9.156;2024-03-08T07:14:45;40.92;;;22.73;;
8435;SDS011;4255;48.730;9.156;2024-03-08T07:17:12;42.33;;;21.60;;
8435;SDS011;4255;48.730;9.156;2024-03-08T07:19:37;40.65;;;23.38;;
8435;SDS011;4255;48.730;9.156;2024-03-08T07:22:05;31.65;;;20.50;;
8435;SDS011;4255;48.730;9.156;2024-03-08T07:24:33;45.63;;;23.88;;
8435;SDS011;4255;48.730;9.156;2024-03-08T07:27:03;33.65;;;19.70;;
8435;SDS011;4255;48.730;9.156;2024-03-08T07:29:30;34.50;;;22.02;;
8435;SDS011;4255;48.730;9.156;2024-03-08T07:31:56;33.90;;;22.33;;
8435;SDS011;4255;48.730;9.156;2024-03-08T07:34:27;33.88;;;21.08;;
8435;SDS011;4255;48.730;9.156;2024-03-08T07:36:56;40.70;;;23.33;;
8435;SDS011;4255;48.730;9.156;2024-03-08T07:39:23;39.22;;;21.33;;
8435;SDS011;4255;48.730;9.156;2024-03-08T07:41:48;34.33;;;21.93;;
8435;SDS011;4255;48.730;9.156;2024-03-08T07:44:17;40.38;;;22.30;;
8435;SDS011;4255;48.730;9.156;2024-03-08T07:46:46;34.85;;;20.55;;
8435;SDS011;4255;48.730;9.156;2024-03-08T07:49:11;34.90;;;22.00;;
8435;SDS011;4255;48.730;9.156;2024-03-08T07:51:37;36.73;;;23.17;;
8435;SDS011;4255;48.730;9.156;2024-03-08T07:54:03;32.72;;;20.50;;
8435;SDS011;4255;48.730;9.156;2024-03-08T07:56:29;41.70;;;25.55;;
8435;SDS011;4255;48.730;9.156;2024-03-08T07:58:55;35.50;;;21.55;;
8435;SDS011;4255;48.730;9.156;2024-03-08T08:01:21;35.30;;;21.97;;
8435;SDS011;4255;48.730;9.156;2024-03-08T08:03:47;35.15;;;19.80;;
8435;SDS011;4255;48.730;9.156;2024-03-08T08:06:15;38.00;;;21.67;;
8435;SDS011;4255;48.730;9.156;2024-03-08T08:08:44;38.43;;;22.90;;
8435;SDS011;4255;48.730;9.156;2024-03-08T08:11:10;32.40;;;20.00;;
8435;SDS011;4255;48.730;9.156;2024-03-08T08:13:40;39.65;;;22.73;;
8435;SDS011;4255;48.730;9.156;2024-03-08T08:16:08;36.20;;;23.05;;
8435;SDS011;4255;48.730;9.156;2024-03-08T08:18:34;34.92;;;20.75;;
8435;SDS011;4255;48.730;9.156;2024-03-08T08:23:30;38.10;;;20.30;;
8435;SDS011;4255;48.730;9.156;2024-03-08T08:25:56;34.37;;;20.97;;
8435;SDS011;4255;48.730;9.156;2024-03-08T08:28:21;31.77;;;19.07;;
8435;SDS011;4255;48.730;9.156;2024-03-08T08:30:47;28.60;;;18.57;;
8435;SDS011;4255;48.730;9.156;2024-03-08T08:33:14;33.88;;;20.90;;
8435;SDS011;4255;48.730;9.156;2024-03-08T08:35:40;32.10;;;19.73;;
8435;SDS011;4255;48.730;9.156;2024-03-08T08:38:05;31.73;;;19.80;;
8435;SDS011;4255;48.730;9.156;2024-03-08T08:40:32;29.70;;;19.90;;
8435;SDS011;4255;48.730;9.156;2024-03-08T08:42:59;32.15;;;19.33;;
8435;SDS011;4255;48.730;9.156;2024-03-08T08:45:24;28.60;;;18.00;;
8435;SDS011;4255;48.730;9.156;2024-03-08T08:47:50;32.42;;;17.60;;
8435;SDS011;4255;48.730;9.156;2024-03-08T08:50:17;34.92;;;20.15;;
8435;SDS011;4255;48.730;9.156;2024-03-08T08:52:48;32.25;;;18.40;;
8435;SDS011;4255;48.730;9.156;2024-03-08T08:55:14;30.30;;;18.23;;
8435;SDS011;4255;48.730;9.156;2024-03-08T08:57:43;33.40;;;19.37;;
8435;SDS011;4255;48.730;9.156;2024-03-08T09:00:09;32.25;;;18.67;;
8435;SDS011;4255;48.730;9.156;2024-03-08T09:02:40;29.63;;;19.20;;
8435;SDS011;4255;48.730;9.156;2024-03-08T09:05:06;34.90;;;19.95;;
8435;SDS011;4255;48.730;9.156;2024-03-08T09:07:36;31.70;;;18.27;;
8435;SDS011;4255;48.730;9.156;2024-03-08T09:10:02;26.80;;;15.82;;
8435;SDS011;4255;48.730;9.156;2024-03-08T09:12:29;30.30;;;18.90;;
8435;SDS011;4255;48.730;9.156;2024-03-08T09:14:54;31.20;;;18.80;;
8435;SDS011;4255;48.730;9.156;2024-03-08T09:17:20;26.43;;;17.97;;
8435;SDS011;4255;48.730;9.156;2024-03-08T09:19:49;32.57;;;18.90;;
8435;SDS011;4255;48.730;9.156;2024-03-08T09:22:15;31.65;;;19.05;;
8435;SDS011;4255;48.730;9.156;2024-03-08T09:24:41;31.77;;;18.40;;
8435;SDS011;4255;48.730;9.156;2024-03-08T09:27:08;28.63;;;18.27;;
8435;SDS011;4255;48.730;9.156;2024-03-08T09:29:34;29.33;;;17.95;;
8435;SDS011;4255;48.730;9.156;2024-03-08T09:32:00;29.27;;;17.73;;
8435;SDS011;4255;48.730;9.156;2024-03-08T09:34:26;32.93;;;19.50;;
8435;SDS011;4255;48.730;9.156;2024-03-08T09:36:51;33.90;;;20.73;;
8435;SDS011;4255;48.730;9.156;2024-03-08T09:39:17;32.00;;;20.40;;
8435;SDS011;4255;48.730;9.156;2024-03-08T09:41:45;33.90;;;19.67;;
8435;SDS011;4255;48.730;9.156;2024-03-08T09:44:14;31.85;;;18.73;;
8435;SDS011;4255;48.730;9.156;2024-03-08T09:46:41;30.23;;;19.02;;
8435;SDS011;4255;48.730;9.156;2024-03-08T09:49:07;28.23;;;19.20;;
8435;SDS011;4255;48.730;9.156;2024-03-08T09:51:34;31.75;;;20.13;;
8435;SDS011;4255;48.730;9.156;2024-03-08T09:54:03;33.95;;;19.40;;
8435;SDS011;4255;48.730;9.156;2024-03-08T09:56:35;31.63;;;17.95;;
8435;SDS011;4255;48.730;9.156;2024-03-08T09:59:01;30.05;;;19.33;;
8435;SDS011;4255;48.730;9.156;2024-03-08T10:01:36;30.17;;;19.13;;
8435;SDS011;4255;48.730;9.156;2024-03-08T10:04:04;29.80;;;20.35;;
8435;SDS011;4255;48.730;9.156;2024-03-08T10:06:29;31.10;;;18.40;;
8435;SDS011;4255;48.730;9.156;2024-03-08T10:08:56;29.60;;;19.67;;
8435;SDS011;4255;48.730;9.156;2024-03-08T10:11:22;29.52;;;17.92;;
8435;SDS011;4255;48.730;9.156;2024-03-08T10:13:49;29.42;;;19.73;;
8435;SDS011;4255;48.730;9.156;2024-03-08T10:16:15;30.88;;;19.23;;
8435;SDS011;4255;48.730;9.156;2024-03-08T10:18:42;30.25;;;19.45;;
8435;SDS011;4255;48.730;9.156;2024-03-08T10:21:11;28.77;;;17.85;;
8435;SDS011;4255;48.730;9.156;2024-03-08T10:23:37;30.70;;;17.67;;
8435;SDS011;4255;48.730;9.156;2024-03-08T10:26:13;31.38;;;19.38;;
8435;SDS011;4255;48.730;9.156;2024-03-08T10:28:47;30.10;;;17.60;;
8435;SDS011;4255;48.730;9.156;2024-03-08T10:31:14;30.83;;;17.67;;
8435;SDS011;4255;48.730;9.156;2024-03-08T10:33:44;24.58;;;17.63;;
8435;SDS011;4255;48.730;9.156;2024-03-08T10:36:14;28.05;;;17.85;;
8435;SDS011;4255;48.730;9.156;2024-03-08T10:38:40;26.00;;;15.20;;
8435;SDS011;4255;48.730;9.156;2024-03-08T10:41:10;25.85;;;16.95;;
8435;SDS011;4255;48.730;9.156;2024-03-08T10:46:45;25.70;;;17.13;;
8435;SDS011;4255;48.730;9.156;2024-03-08T10:49:16;28.25;;;16.48;;
8435;SDS011;4255;48.730;9.156;2024-03-08T10:51:44;26.45;;;17.27;;
8435;SDS011;4255;48.730;9.156;2024-03-08T10:54:10;25.90;;;17.48;;
8435;SDS011;4255;48.730;9.156;2024-03-08T10:56:37;24.58;;;17.05;;
8435;SDS011;4255;48.730;9.156;2024-03-08T10:59:05;30.42;;;17.80;;
8435;SDS011;4255;48.730;9.156;2024-03-08T11:01:33;27.00;;;16.73;;
8435;SDS011;4255;48.730;9.156;2024-03-08T11:03:59;24.80;;;16.40;;
8435;SDS011;4255;48.730;9.156;2024-03-08T11:09:03;27.83;;;17.55;;
8435;SDS011;4255;48.730;9.156;2024-03-08T11:11:49;25.25;;;17.08;;
8435;SDS011;4255;48.730;9.156;2024-03-08T11:17:09;23.80;;;16.40;;
8435;SDS011;4255;48.730;9.156;2024-03-08T11:19:34;28.03;;;17.90;;
8435;SDS011;4255;48.730;9.156;2024-03-08T11:22:01;25.57;;;17.87;;
8435;SDS011;4255;48.730;9.156;2024-03-08T11:24:28;22.67;;;14.50;;
8435;SDS011;4255;48.730;9.156;2024-03-08T11:27:03;25.33;;;16.05;;
8435;SDS011;4255;48.730;9.156;2024-03-08T11:32:12;29.52;;;17.77;;
8435;SDS011;4255;48.730;9.156;2024-03-08T11:34:40;29.30;;;17.25;;
8435;SDS011;4255;48.730;9.156;2024-03-08T11:37:15;24.10;;;16.10;;
8435;SDS011;4255;48.730;9.156;2024-03-08T11:39:53;24.15;;;15.20;;
8435;SDS011;4255;48.730;9.156;2024-03-08T11:42:27;35.95;;;17.85;;
8435;SDS011;4255;48.730;9.156;2024-03-08T11:44:52;25.30;;;16.50;;
8435;SDS011;4255;48.730;9.156;2024-03-08T11:47:18;24.83;;;15.50;;
8435;SDS011;4255;48.730;9.156;2024-03-08T11:49:46;25.08;;;16.50;;
8435;SDS011;4255;48.730;9.156;2024-03-08T11:52:14;26.42;;;17.08;;
8435;SDS011;4255;48.730;9.156;2024-03-08T11:54:41;22.98;;;15.18;;
8435;SDS011;4255;48.730;9.156;2024-03-08T11:57:08;23.58;;;15.93;;
8435;SDS011;4255;48.730;9.156;2024-03-08T11:59:35;26.13;;;16.40;;
8435;SDS011;4255;48.730;9.156;2024-03-08T12:02:06;21.23;;;15.37;;
8435;SDS011;4255;48.730;9.156;2024-03-08T12:04:36;26.48;;;17.60;;
8435;SDS011;4255;48.730;9.156;2024-03-08T12:07:02;25.73;;;16.77;;
8435;SDS011;4255;48.730;9.156;2024-03-08T12:09:33;28.27;;;17.15;;
8435;SDS011;4255;48.730;9.156;2024-03-08T12:12:01;25.10;;;16.75;;
8435;SDS011;4255;48.730;9.156;2024-03-08T12:14:28;28.25;;;17.60;;
8435;SDS011;4255;48.730;9.156;2024-03-08T12:16:55;28.67;;;17.95;;
8435;SDS011;4255;48.730;9.156;2024-03-08T12:19:20;26.43;;;16.97;;
8435;SDS011;4255;48.730;9.156;2024-03-08T12:21:46;28.03;;;17.73;;
8435;SDS011;4255;48.730;9.156;2024-03-08T12:24:16;26.70;;;17.50;;
8435;SDS011;4255;48.730;9.156;2024-03-08T12:26:46;28.23;;;17.80;;
8435;SDS011;4255;48.730;9.156;2024-03-08T12:29:26;24.48;;;16.27;;
8435;SDS011;4255;48.730;9.156;2024-03-08T12:31:59;26.38;;;16.27;;
8435;SDS011;4255;48.730;9.156;2024-03-08T12:34:26;29.40;;;19.60;;
8435;SDS011;4255;48.730;9.156;2024-03-08T12:36:53;29.88;;;17.52;;
8435;SDS011;4255;48.730;9.156;2024-03-08T12:39:20;30.95;;;17.15;;
8435;SDS011;4255;48.730;9.156;2024-03-08T12:41:53;26.85;;;16.20;;
8435;SDS011;4255;48.730;9.156;2024-03-08T12:44:19;32.70;;;18.88;;
8435;SDS011;4255;48.730;9.156;2024-03-08T12:46:48;26.73;;;16.25;;
8435;SDS011;4255;48.730;9.156;2024-03-08T12:49:14;26.47;;;17.03;;
8435;SDS011;4255;48.730;9.156;2024-03-08T12:51:44;32.55;;;18.60;;
8435;SDS011;4255;48.730;9.156;2024-03-08T12:54:10;25.08;;;16.88;;
8435;SDS011;4255;48.730;9.156;2024-03-08T12:56:36;27.87;;;15.10;;
8435;SDS011;4255;48.730;9.156;2024-03-08T12:59:05;29.65;;;18.17;;
8435;SDS011;4255;48.730;9.156;2024-03-08T13:01:33;26.42;;;16.00;;
8435;SDS011;4255;48.730;9.156;2024-03-08T13:04:00;29.42;;;18.17;;
8435;SDS011;4255;48.730;9.156;2024-03-08T13:06:27;26.63;;;18.35;;
8435;SDS011;4255;48.730;9.156;2024-03-08T13:08:54;29.02;;;18.60;;
8435;SDS011;4255;48.730;9.156;2024-03-08T13:11:23;28.10;;;16.25;;
8435;SDS011;4255;48.730;9.156;2024-03-08T13:13:49;24.42;;;16.25;;
8435;SDS011;4255;48.730;9.156;2024-03-08T13:16:15;30.23;;;18.27;;
8435;SDS011;4255;48.730;9.156;2024-03-08T13:18:43;31.50;;;17.98;;
8435;SDS011;4255;48.730;9.156;2024-03-08T13:21:10;23.97;;;15.63;;
8435;SDS011;4255;48.730;9.156;2024-03-08T13:23:39;27.38;;;17.25;;
8435;SDS011;4255;48.730;9.156;2024-03-08T13:26:10;26.52;;;16.52;;
8435;SDS011;4255;48.730;9.156;2024-03-08T13:28:43;27.77;;;15.85;;
8435;SDS011;4255;48.730;9.156;2024-03-08T13:31:10;31.13;;;17.58;;
8435;SDS011;4255;48.730;9.156;2024-03-08T13:33:37;31.57;;;18.53;;
8435;SDS011;4255;48.730;9.156;2024-03-08T13:36:04;29.30;;;17.88;;
8435;SDS011;4255;48.730;9.156;2024-03-08T13:38:31;32.40;;;17.23;;
8435;SDS011;4255;48.730;9.156;2024-03-08T13:41:00;30.10;;;18.25;;
8435;SDS011;4255;48.730;9.156;2024-03-08T13:43:27;28.15;;;16.98;;
8435;SDS011;4255;48.730;9.156;2024-03-08T13:45:53;29.03;;;18.43;;
8435;SDS011;4255;48.730;9.156;2024-03-08T13:48:19;30.42;;;19.30;;
8435;SDS011;4255;48.730;9.156;2024-03-08T13:50:47;31.30;;;17.20;;
8435;SDS011;4255;48.730;9.156;2024-03-08T13:53:13;28.67;;;17.15;;
8435;SDS011;4255;48.730;9.156;2024-03-08T13:55:40;27.45;;;17.27;;
8435;SDS011;4255;48.730;9.156;2024-03-08T13:58:05;26.33;;;16.97;;
8435;SDS011;4255;48.730;9.156;2024-03-08T14:00:34;29.40;;;17.92;;
8435;SDS011;4255;48.730;9.156;2024-03-08T14:03:01;31.45;;;18.83;;
8435;SDS011;4255;48.730;9.156;2024-03-08T14:05:30;28.95;;;18.35;;
8435;SDS011;4255;48.730;9.156;2024-03-08T14:07:59;30.30;;;19.58;;
8435;SDS011;4255;48.730;9.156;2024-03-08T14:10:28;30.15;;;17.15;;
8435;SDS011;4255;48.730;9.156;2024-03-08T14:12:56;26.08;;;17.48;;
8435;SDS011;4255;48.730;9.156;2024-03-08T14:15:22;28.73;;;17.15;;
8435;SDS011;4255;48.730;9.156;2024-03-08T14:17:54;30.23;;;19.60;;
8435;SDS011;4255;48.730;9.156;2024-03-08T14:20:21;28.42;;;17.52;;
8435;SDS011;4255;48.730;9.156;2024-03-08T14:22:53;29.63;;;18.45;;
8435;SDS011;4255;48.730;9.156;2024-03-08T14:25:19;26.95;;;16.35;;
8435;SDS011;4255;48.730;9.156;2024-03-08T14:27:48;31.23;;;19.00;;
8435;SDS011;4255;48.730;9.156;2024-03-08T14:30:14;29.98;;;17.05;;
8435;SDS011;4255;48.730;9.156;2024-03-08T14:32:56;27.55;;;16.02;;
8435;SDS011;4255;48.730;9.156;2024-03-08T14:35:23;26.17;;;17.45;;
8435;SDS011;4255;48.730;9.156;2024-03-08T14:37:50;32.22;;;17.45;;
8435;SDS011;4255;48.730;9.156;2024-03-08T14:40:17;26.85;;;17.50;;
8435;SDS011;4255;48.730;9.156;2024-03-08T14:42:47;28.40;;;17.70;;
8435;SDS011;4255;48.730;9.156;2024-03-08T14:45:16;27.10;;;17.45;;
8435;SDS011;4255;48.730;9.156;2024-03-08T14:47:44;27.48;;;16.05;;
8435;SDS011;4255;48.730;9.156;2024-03-08T14:50:14;31.20;;;18.25;;
8435;SDS011;4255;48.730;9.156;2024-03-08T14:52:44;28.40;;;17.52;;
8435;SDS011;4255;48.730;9.156;2024-03-08T14:55:11;27.20;;;19.15;;
8435;SDS011;4255;48.730;9.156;2024-03-08T14:57:40;29.48;;;17.95;;
8435;SDS011;4255;48.730;9.156;2024-03-08T15:00:06;27.80;;;18.13;;
8435;SDS011;4255;48.730;9.156;2024-03-08T15:02:34;28.95;;;17.35;;